createdAt,value
2022-09-14T00:00:45.252Z,17.98
2022-09-14T00:03:48.046Z,17.97
2022-09-14T00:06:51.737Z,17.96
2022-09-14T00:09:55.837Z,17.94
2022-09-14T00:13:00.635Z,17.85
2022-09-14T00:16:05.613Z,17.71
2022-09-14T00:19:10.589Z,17.68
2022-09-14T00:22:13.823Z,17.67
2022-09-14T00:25:18.518Z,17.68
2022-09-14T00:28:21.209Z,17.72
2022-09-14T00:31:25.909Z,17.71
2022-09-14T00:34:29.397Z,17.76
2022-09-14T00:37:32.194Z,17.79
2022-09-14T00:40:37.058Z,17.82
2022-09-14T00:43:54.333Z,17.82
2022-09-14T00:46:59.449Z,17.82
2022-09-14T00:50:04.961Z,17.75
2022-09-14T00:53:07.639Z,17.67
2022-09-14T00:56:11.960Z,17.64
2022-09-14T00:59:19.949Z,17.60
2022-09-14T01:02:25.379Z,17.55
2022-09-14T01:05:39.701Z,17.52
2022-09-14T01:08:58.418Z,17.48
2022-09-14T01:12:13.281Z,17.38
2022-09-14T01:15:27.219Z,17.18
2022-09-14T01:18:35.834Z,17.08
2022-09-14T01:21:43.437Z,17.16
2022-09-14T01:24:49.772Z,17.07
2022-09-14T01:27:56.426Z,16.96
2022-09-14T01:31:02.428Z,17.02
2022-09-14T01:34:10.280Z,17.01
2022-09-14T01:37:18.959Z,17.00
2022-09-14T01:40:25.861Z,16.99
2022-09-14T01:43:36.664Z,17.01
2022-09-14T01:46:44.921Z,17.07
2022-09-14T01:49:52.873Z,17.06
2022-09-14T01:52:59.957Z,17.04
2022-09-14T01:56:08.747Z,17.09
2022-09-14T01:59:18.143Z,17.14
2022-09-14T02:02:25.077Z,17.19
2022-09-14T02:05:35.665Z,17.24
2022-09-14T02:08:38.782Z,17.22
2022-09-14T02:11:42.152Z,17.14
2022-09-14T02:14:48.346Z,17.14
2022-09-14T02:17:51.071Z,17.08
2022-09-14T02:20:59.624Z,17.04
2022-09-14T02:24:03.644Z,17.04
2022-09-14T02:27:08.213Z,17.04
2022-09-14T02:30:13.641Z,17.08
2022-09-14T02:33:22.296Z,17.07
2022-09-14T02:36:33.152Z,17.07
2022-09-14T02:39:45.080Z,17.09
2022-09-14T02:42:57.955Z,17.08
2022-09-14T02:46:10.645Z,17.06
2022-09-14T02:49:22.007Z,17.02
2022-09-14T02:52:32.834Z,17.03
2022-09-14T02:55:38.520Z,17.05
2022-09-14T02:58:43.799Z,17.10
2022-09-14T03:01:47.966Z,17.13
2022-09-14T03:04:50.690Z,17.17
2022-09-14T03:07:53.450Z,17.22
2022-09-14T03:10:56.206Z,17.17
2022-09-14T03:13:58.860Z,17.17
2022-09-14T03:17:03.646Z,17.20
2022-09-14T03:20:07.031Z,17.19
2022-09-14T03:23:11.530Z,17.14
2022-09-14T03:26:16.242Z,17.11
2022-09-14T03:29:19.647Z,17.07
2022-09-14T03:32:24.130Z,17.03
2022-09-14T03:35:30.648Z,17.01
2022-09-14T03:38:33.653Z,17.07
2022-09-14T03:41:36.328Z,17.11
2022-09-14T03:44:39.107Z,17.12
2022-09-14T03:47:43.892Z,17.11
2022-09-14T03:50:47.035Z,17.08
2022-09-14T03:53:49.791Z,17.04
2022-09-14T03:56:53.680Z,17.00
2022-09-14T03:59:56.359Z,16.95
2022-09-14T04:03:03.736Z,16.95
2022-09-14T04:06:07.971Z,16.89
2022-09-14T04:09:11.080Z,16.89
2022-09-14T04:12:13.781Z,16.88
2022-09-14T04:15:16.886Z,16.88
2022-09-14T04:18:20.951Z,16.89
2022-09-14T04:21:26.793Z,16.92
2022-09-14T04:24:30.584Z,16.89
2022-09-14T04:27:34.098Z,16.90
2022-09-14T04:30:39.041Z,16.94
2022-09-14T04:33:44.837Z,16.94
2022-09-14T04:36:47.566Z,16.97
2022-09-14T04:39:50.732Z,16.95
2022-09-14T04:42:53.671Z,16.93
2022-09-14T04:46:03.589Z,16.87
2022-09-14T04:49:08.388Z,16.91
2022-09-14T04:52:11.645Z,16.91
2022-09-14T04:55:14.435Z,16.95
2022-09-14T04:58:17.661Z,16.97
2022-09-14T05:01:22.112Z,16.97
2022-09-14T05:04:26.524Z,16.97
2022-09-14T05:07:29.824Z,16.98
2022-09-14T05:10:32.522Z,16.97
2022-09-14T05:13:36.218Z,16.91
2022-09-14T05:16:41.085Z,16.89
2022-09-14T05:19:45.152Z,16.88
2022-09-14T05:22:50.748Z,16.90
2022-09-14T05:25:54.408Z,16.96
2022-09-14T05:28:58.612Z,17.01
2022-09-14T05:32:01.565Z,17.01
2022-09-14T05:35:06.733Z,17.00
2022-09-14T05:38:09.421Z,17.00
2022-09-14T05:41:14.747Z,17.02
2022-09-14T05:44:17.430Z,17.02
2022-09-14T05:47:21.533Z,17.05
2022-09-14T05:50:25.619Z,17.04
2022-09-14T05:53:29.630Z,17.07
2022-09-14T05:56:32.666Z,17.08
2022-09-14T05:59:36.068Z,17.09
2022-09-14T06:02:38.774Z,17.06
2022-09-14T06:05:43.360Z,16.89
2022-09-14T06:08:46.583Z,17.07
2022-09-14T06:11:49.910Z,17.07
2022-09-14T06:14:52.549Z,17.11
2022-09-14T06:17:55.367Z,17.14
2022-09-14T06:20:59.437Z,17.17
2022-09-14T06:24:02.425Z,17.22
2022-09-14T06:27:06.774Z,17.28
2022-09-14T06:30:10.687Z,17.34
2022-09-14T06:33:13.741Z,17.39
2022-09-14T06:36:19.754Z,17.44
2022-09-14T06:39:22.578Z,17.47
2022-09-14T06:42:25.358Z,17.43
2022-09-14T06:45:28.221Z,17.45
2022-09-14T06:48:33.961Z,17.45
2022-09-14T06:51:39.683Z,17.48
2022-09-14T06:54:42.318Z,17.52
2022-09-14T06:57:45.151Z,17.56
2022-09-14T07:00:47.856Z,17.60
2022-09-14T07:03:52.402Z,17.64
2022-09-14T07:06:56.438Z,17.68
2022-09-14T07:09:59.146Z,17.75
2022-09-14T07:13:02.173Z,17.85
2022-09-14T07:16:05.484Z,17.93
2022-09-14T07:19:11.141Z,17.96
2022-09-14T07:22:15.171Z,17.99
2022-09-14T07:25:18.119Z,18.09
2022-09-14T07:28:20.749Z,18.23
2022-09-14T07:31:25.945Z,18.32
2022-09-14T07:34:28.637Z,18.40
2022-09-14T07:37:32.787Z,18.48
2022-09-14T07:40:35.424Z,18.56
2022-09-14T07:43:38.248Z,18.56
2022-09-14T07:46:43.200Z,18.56
2022-09-14T07:49:46.036Z,18.70
2022-09-14T07:52:52.052Z,18.84
2022-09-14T07:55:54.890Z,18.93
2022-09-14T07:59:23.773Z,18.98
2022-09-14T08:02:24.522Z,19.00
2022-09-14T08:05:27.794Z,19.06
2022-09-14T08:08:33.480Z,19.06
2022-09-14T08:11:36.179Z,19.13
2022-09-14T08:14:39.106Z,19.27
2022-09-14T08:17:41.732Z,19.38
2022-09-14T08:20:44.523Z,19.42
2022-09-14T08:23:48.571Z,19.50
2022-09-14T08:26:51.495Z,19.72
2022-09-14T08:29:54.444Z,19.77
2022-09-14T08:33:01.269Z,19.90
2022-09-14T08:36:05.813Z,19.87
2022-09-14T08:39:11.432Z,19.88
2022-09-14T08:42:19.408Z,19.91
2022-09-14T08:45:24.385Z,19.98
2022-09-14T08:48:32.499Z,20.04
2022-09-14T08:51:36.314Z,19.96
2022-09-14T08:54:40.944Z,20.18
2022-09-14T08:57:46.806Z,20.31
2022-09-14T09:00:54.957Z,20.54
2022-09-14T09:04:24.544Z,20.69
2022-09-14T09:07:37.028Z,20.83
2022-09-14T09:10:41.959Z,20.98
2022-09-14T09:13:45.965Z,21.14
2022-09-14T09:16:53.973Z,21.19
2022-09-14T09:20:05.924Z,21.15
2022-09-14T09:23:14.263Z,21.04
2022-09-14T09:26:25.725Z,20.84
2022-09-14T09:29:28.561Z,20.76
2022-09-14T09:32:31.397Z,20.60
2022-09-14T09:35:34.850Z,20.47
2022-09-14T09:38:37.520Z,20.45
2022-09-14T09:41:47.529Z,20.34
2022-09-14T09:45:02.590Z,20.34
2022-09-14T09:48:11.182Z,20.34
2022-09-14T09:51:15.849Z,20.34
2022-09-14T09:54:25.567Z,20.39
2022-09-14T09:57:35.202Z,20.40
2022-09-14T10:00:38.337Z,20.41
2022-09-14T10:03:42.079Z,20.48
2022-09-14T10:06:46.636Z,20.43
2022-09-14T10:09:59.940Z,20.37
2022-09-14T10:13:07.126Z,20.28
2022-09-14T10:16:16.426Z,20.22
2022-09-14T10:19:24.779Z,20.15
2022-09-14T10:22:29.592Z,20.20
2022-09-14T10:25:32.610Z,20.27
2022-09-14T10:28:37.199Z,20.41
2022-09-14T10:31:42.381Z,20.57
2022-09-14T10:34:45.850Z,20.66
2022-09-14T10:38:08.639Z,20.64
2022-09-14T10:41:22.676Z,20.92
2022-09-14T10:44:45.963Z,21.24
2022-09-14T10:48:07.301Z,21.47
2022-09-14T10:51:29.474Z,21.79
2022-09-14T10:55:04.190Z,22.12
2022-09-14T10:58:31.402Z,22.19
2022-09-14T11:02:07.062Z,22.23
2022-09-14T11:05:16.192Z,22.48
2022-09-14T11:08:25.670Z,22.62
2022-09-14T11:11:44.238Z,22.63
2022-09-14T11:14:59.455Z,22.50
2022-09-14T11:18:18.456Z,22.29
2022-09-14T11:21:31.848Z,22.11
2022-09-14T11:24:39.240Z,21.92
2022-09-14T11:27:44.823Z,21.95
2022-09-14T11:30:54.386Z,21.82
2022-09-14T11:34:04.959Z,21.91
2022-09-14T11:37:11.864Z,21.92
2022-09-14T11:40:24.407Z,22.15
2022-09-14T11:43:32.025Z,22.15
2022-09-14T11:46:38.962Z,22.18
2022-09-14T11:49:54.996Z,22.39
2022-09-14T11:53:04.908Z,22.49
2022-09-14T11:56:23.730Z,22.57
2022-09-14T11:59:48.488Z,22.66
2022-09-14T12:03:16.091Z,22.79
2022-09-14T12:06:45.782Z,22.81
2022-09-14T12:09:50.308Z,22.71
2022-09-14T12:12:55.415Z,22.59
2022-09-14T12:16:06.999Z,22.48
2022-09-14T12:19:18.274Z,22.37
2022-09-14T12:22:34.933Z,22.26
2022-09-14T12:25:39.874Z,22.34
2022-09-14T12:28:50.755Z,22.42
2022-09-14T12:32:19.505Z,22.53
2022-09-14T12:35:47.677Z,22.46
2022-09-14T12:39:23.628Z,22.46
2022-09-14T12:42:29.936Z,22.43
2022-09-14T12:45:51.235Z,22.32
2022-09-14T12:49:00.623Z,22.28
2022-09-14T12:52:31.877Z,22.23
2022-09-14T12:55:46.215Z,22.21
2022-09-14T12:59:03.951Z,22.18
2022-09-14T13:02:39.498Z,22.11
2022-09-14T13:05:46.084Z,22.06
2022-09-14T13:08:51.478Z,22.02
2022-09-14T13:11:59.353Z,21.93
2022-09-14T13:15:07.149Z,21.83
2022-09-14T13:18:31.445Z,21.68
2022-09-14T13:21:34.436Z,21.61
2022-09-14T13:24:43.783Z,21.50
2022-09-14T13:27:50.272Z,21.31
2022-09-14T13:30:58.277Z,21.10
2022-09-14T13:34:02.931Z,20.95
2022-09-14T13:37:06.222Z,20.89
2022-09-14T13:40:10.388Z,20.87
2022-09-14T13:43:16.154Z,20.85
2022-09-14T13:46:20.579Z,20.84
2022-09-14T13:49:23.953Z,20.85
2022-09-14T13:52:57.492Z,20.92
2022-09-14T13:55:58.156Z,21.03
2022-09-14T13:59:20.606Z,21.14
2022-09-14T14:02:24.160Z,21.19
2022-09-14T14:05:29.161Z,21.17
2022-09-14T14:08:36.461Z,21.11
2022-09-14T14:11:46.890Z,21.10
2022-09-14T14:14:56.211Z,20.73
2022-09-14T14:17:58.957Z,20.60
2022-09-14T14:21:26.304Z,20.48
2022-09-14T14:24:35.169Z,20.42
2022-09-14T14:27:46.142Z,20.36
2022-09-14T14:30:50.647Z,20.28
2022-09-14T14:33:55.543Z,20.35
2022-09-14T14:36:58.249Z,20.22
2022-09-14T14:40:01.071Z,20.31
2022-09-14T14:43:05.605Z,20.15
2022-09-14T14:46:11.037Z,20.14
2022-09-14T14:49:14.714Z,20.12
2022-09-14T14:52:17.375Z,20.14
2022-09-14T14:55:21.144Z,20.16
2022-09-14T14:58:24.587Z,20.23
2022-09-14T15:01:28.969Z,20.24
2022-09-14T15:04:31.818Z,20.37
2022-09-14T15:07:37.595Z,20.38
2022-09-14T15:10:42.268Z,20.43
2022-09-14T15:13:44.972Z,20.41
2022-09-14T15:16:49.956Z,20.41
2022-09-14T15:19:53.713Z,20.41
2022-09-14T15:22:56.964Z,20.41
2022-09-14T15:25:59.828Z,20.44
2022-09-14T15:29:02.851Z,20.45
2022-09-14T15:32:07.269Z,20.38
2022-09-14T15:35:13.687Z,20.33
2022-09-14T15:38:16.422Z,20.28
2022-09-14T15:41:19.245Z,20.17
2022-09-14T15:44:21.959Z,20.16
2022-09-14T15:47:25.975Z,20.17
2022-09-14T15:50:29.541Z,20.19
2022-09-14T15:53:32.329Z,20.15
2022-09-14T15:56:35.050Z,20.13
2022-09-14T15:59:37.884Z,20.09
2022-09-14T16:02:42.011Z,20.04
2022-09-14T16:05:44.671Z,20.00
2022-09-14T16:08:47.363Z,20.01
2022-09-14T16:11:50.961Z,19.97
2022-09-14T16:14:54.585Z,19.95
2022-09-14T16:17:58.668Z,19.91
2022-09-14T16:21:07.129Z,19.87
2022-09-14T16:24:11.987Z,19.82
2022-09-14T16:27:14.664Z,19.80
2022-09-14T16:30:17.653Z,19.75
2022-09-14T16:33:21.916Z,19.71
2022-09-14T16:36:27.038Z,19.78
2022-09-14T16:39:31.618Z,19.85
2022-09-14T16:42:34.269Z,19.87
2022-09-14T16:45:37.111Z,19.84
2022-09-14T16:48:43.582Z,19.83
2022-09-14T16:51:47.344Z,19.84
2022-09-14T16:54:54.115Z,19.86
2022-09-14T16:57:58.974Z,19.81
2022-09-14T17:01:06.879Z,19.81
2022-09-14T17:04:13.900Z,19.80
2022-09-14T17:07:16.760Z,19.73
2022-09-14T17:10:19.515Z,19.69
2022-09-14T17:13:22.275Z,19.64
2022-09-14T17:16:27.072Z,19.61
2022-09-14T17:19:31.243Z,19.54
2022-09-14T17:22:34.294Z,19.47
2022-09-14T17:25:37.451Z,19.44
2022-09-14T17:28:41.102Z,19.41
2022-09-14T17:31:45.380Z,19.36
2022-09-14T17:34:49.650Z,19.30
2022-09-14T17:37:52.377Z,19.28
2022-09-14T17:41:02.000Z,19.22
2022-09-14T17:44:06.669Z,19.20
2022-09-14T17:47:09.412Z,19.20
2022-09-14T17:50:13.799Z,19.20
2022-09-14T17:53:17.198Z,19.22
2022-09-14T17:56:22.122Z,19.23
2022-09-14T17:59:24.840Z,19.24
2022-09-14T18:02:27.534Z,19.27
2022-09-14T18:05:31.580Z,19.24
2022-09-14T18:08:34.317Z,19.19
2022-09-14T18:11:37.476Z,19.19
2022-09-14T18:14:40.657Z,19.12
2022-09-14T18:17:45.665Z,19.06
2022-09-14T18:20:49.675Z,19.00
2022-09-14T18:23:53.673Z,18.99
2022-09-14T18:26:56.871Z,18.90
2022-09-14T18:30:00.066Z,18.89
2022-09-14T18:33:03.004Z,18.89
2022-09-14T18:36:08.000Z,18.90
2022-09-14T18:39:11.525Z,18.94
2022-09-14T18:42:14.270Z,18.96
2022-09-14T18:45:17.165Z,18.99
2022-09-14T18:48:19.962Z,19.11
2022-09-14T18:51:24.447Z,19.08
2022-09-14T18:54:27.944Z,19.13
2022-09-14T18:57:30.636Z,19.13
2022-09-14T19:00:33.673Z,19.08
2022-09-14T19:03:37.379Z,19.11
2022-09-14T19:06:42.746Z,19.13
2022-09-14T19:09:46.919Z,19.06
2022-09-14T19:12:49.842Z,19.08
2022-09-14T19:15:52.539Z,19.04
2022-09-14T19:18:56.017Z,19.12
2022-09-14T19:22:00.331Z,19.06
2022-09-14T19:25:03.092Z,19.00
2022-09-14T19:28:06.388Z,18.97
2022-09-14T19:31:11.096Z,18.95
2022-09-14T19:34:13.745Z,18.91
2022-09-14T19:37:17.761Z,19.04
2022-09-14T19:40:20.715Z,19.07
2022-09-14T19:43:23.687Z,19.00
2022-09-14T19:46:26.726Z,18.95
2022-09-14T19:49:29.643Z,18.90
2022-09-14T19:52:33.673Z,18.85
2022-09-14T19:55:36.601Z,18.74
2022-09-14T19:58:41.347Z,18.79
2022-09-14T20:01:44.836Z,18.73
2022-09-14T20:04:47.642Z,18.73
2022-09-14T20:07:51.685Z,18.71
2022-09-14T20:10:54.616Z,18.66
2022-09-14T20:13:59.039Z,18.55
2022-09-14T20:17:02.258Z,18.68
2022-09-14T20:20:05.609Z,18.60
2022-09-14T20:23:09.648Z,18.57
2022-09-14T20:26:14.434Z,18.59
2022-09-14T20:29:19.931Z,18.58
2022-09-14T20:32:22.788Z,18.55
2022-09-14T20:35:25.463Z,18.50
2022-09-14T20:38:30.049Z,18.49
2022-09-14T20:41:34.916Z,18.48
2022-09-14T20:44:37.825Z,18.41
2022-09-14T20:47:40.677Z,18.33
2022-09-14T20:50:52.707Z,18.28
2022-09-14T20:53:57.252Z,18.31
2022-09-14T20:57:04.076Z,18.33
2022-09-14T21:00:08.497Z,18.32
2022-09-14T21:03:11.929Z,18.28
2022-09-14T21:06:17.301Z,18.30
2022-09-14T21:09:24.471Z,18.30
2022-09-14T21:12:27.400Z,18.32
2022-09-14T21:15:30.173Z,18.31
2022-09-14T21:18:32.899Z,18.33
2022-09-14T21:21:35.974Z,18.23
2022-09-14T21:24:40.257Z,18.32
2022-09-14T21:27:43.011Z,18.32
2022-09-14T21:30:45.864Z,18.32
2022-09-14T21:33:50.322Z,18.27
2022-09-14T21:36:54.038Z,18.25
2022-09-14T21:39:58.847Z,18.21
2022-09-14T21:43:01.539Z,18.17
2022-09-14T21:46:05.131Z,18.13
2022-09-14T21:49:08.497Z,18.12
2022-09-14T21:52:11.195Z,18.10
2022-09-14T21:55:15.389Z,18.08
2022-09-14T21:58:18.124Z,18.07
2022-09-14T22:01:22.206Z,18.04
2022-09-14T22:04:26.257Z,18.07
2022-09-14T22:07:29.054Z,18.06
2022-09-14T22:10:36.153Z,18.09
2022-09-14T22:13:39.265Z,18.03
2022-09-14T22:16:42.942Z,18.01
2022-09-14T22:19:45.979Z,17.97
2022-09-14T22:22:48.726Z,17.99
2022-09-14T22:25:52.940Z,17.99
2022-09-14T22:28:56.567Z,17.95
2022-09-14T22:32:00.095Z,17.90
2022-09-14T22:35:03.415Z,17.90
2022-09-14T22:38:07.775Z,17.91
2022-09-14T22:41:14.450Z,17.91
2022-09-14T22:44:17.193Z,17.96
2022-09-14T22:47:20.582Z,17.95
2022-09-14T22:50:23.434Z,17.89
2022-09-14T22:53:27.369Z,17.85
2022-09-14T22:56:33.459Z,17.76
2022-09-14T22:59:36.537Z,17.69
2022-09-14T23:02:39.612Z,17.64
2022-09-14T23:05:50.226Z,17.55
2022-09-14T23:08:53.200Z,17.54
2022-09-14T23:11:57.217Z,17.61
2022-09-14T23:15:00.521Z,17.59
2022-09-14T23:18:03.593Z,17.61
2022-09-14T23:21:07.677Z,17.66
2022-09-14T23:24:11.644Z,17.68
2022-09-14T23:27:16.066Z,17.73
2022-09-14T23:30:18.847Z,17.76
2022-09-14T23:33:21.624Z,17.75
2022-09-14T23:36:25.189Z,17.70
2022-09-14T23:39:27.948Z,17.70
2022-09-14T23:42:32.343Z,17.69
2022-09-14T23:45:35.012Z,17.71
2022-09-14T23:48:39.039Z,17.71
2022-09-14T23:51:42.717Z,17.72
2022-09-14T23:54:45.582Z,17.74
2022-09-14T23:57:49.912Z,17.76
